createdAt,value
2022-10-05T00:01:34.654Z,91.79
2022-10-05T00:04:20.265Z,91.98
2022-10-05T00:07:06.752Z,91.94
2022-10-05T00:09:35.475Z,91.69
2022-10-05T00:12:19.301Z,91.39
2022-10-05T00:14:50.654Z,91.18
2022-10-05T00:17:23.959Z,91.29
2022-10-05T00:19:54.083Z,91.34
2022-10-05T00:22:29.833Z,91.45
2022-10-05T00:25:11.131Z,91.58
2022-10-05T00:27:39.105Z,91.61
2022-10-05T00:30:21.610Z,91.78
2022-10-05T00:32:49.989Z,91.60
2022-10-05T00:35:20.318Z,91.66
2022-10-05T00:37:54.759Z,91.51
2022-10-05T00:40:41.570Z,91.46
2022-10-05T00:44:11.352Z,91.47
2022-10-05T00:47:01.717Z,91.40
2022-10-05T00:49:57.880Z,90.94
2022-10-05T00:52:51.836Z,90.88
2022-10-05T00:55:40.548Z,90.78
2022-10-05T00:58:37.546Z,90.74
2022-10-05T01:01:23.010Z,90.61
2022-10-05T01:04:12.869Z,90.59
2022-10-05T01:07:06.971Z,90.65
2022-10-05T01:10:05.180Z,90.58
2022-10-05T01:12:48.844Z,90.19
2022-10-05T01:15:39.725Z,89.89
2022-10-05T01:18:18.598Z,89.67
2022-10-05T01:21:02.615Z,89.35
2022-10-05T01:24:01.451Z,89.33
2022-10-05T01:27:01.300Z,89.31
2022-10-05T01:29:35.994Z,89.61
2022-10-05T01:32:36.904Z,89.60
2022-10-05T01:35:33.910Z,89.58
2022-10-05T01:38:20.438Z,89.86
2022-10-05T01:41:05.067Z,90.15
2022-10-05T01:43:49.185Z,90.04
2022-10-05T01:46:31.520Z,89.81
2022-10-05T01:49:28.190Z,89.55
2022-10-05T01:52:34.068Z,89.62
2022-10-05T01:55:19.976Z,89.19
2022-10-05T01:58:07.454Z,89.20
2022-10-05T02:00:51.787Z,89.33
2022-10-05T02:03:30.786Z,89.58
2022-10-05T02:06:12.272Z,89.30
2022-10-05T02:08:48.699Z,89.35
2022-10-05T02:11:18.940Z,89.46
2022-10-05T02:14:22.789Z,89.78
2022-10-05T02:16:54.918Z,88.93
2022-10-05T02:19:38.180Z,88.82
2022-10-05T02:22:21.679Z,88.37
2022-10-05T02:24:59.324Z,88.08
2022-10-05T02:27:36.826Z,87.69
2022-10-05T02:30:10.489Z,87.66
2022-10-05T02:32:53.093Z,87.81
2022-10-05T02:35:21.814Z,87.91
2022-10-05T02:38:16.989Z,87.99
2022-10-05T02:41:17.986Z,88.02
2022-10-05T02:43:59.564Z,87.80
2022-10-05T02:46:59.790Z,87.29
2022-10-05T02:50:31.645Z,86.88
2022-10-05T02:53:24.066Z,86.96
2022-10-05T02:56:32.266Z,86.85
2022-10-05T02:59:14.718Z,86.61
2022-10-05T03:01:55.622Z,86.20
2022-10-05T03:04:42.957Z,86.12
2022-10-05T03:07:32.790Z,85.72
2022-10-05T03:10:11.920Z,85.75
2022-10-05T03:13:13.304Z,85.43
2022-10-05T03:16:39.385Z,85.89
2022-10-05T03:20:00.398Z,85.47
2022-10-05T03:23:00.657Z,85.79
2022-10-05T03:25:47.242Z,85.38
2022-10-05T03:28:42.489Z,85.37
2022-10-05T03:31:45.238Z,85.54
2022-10-05T03:34:31.280Z,85.46
2022-10-05T03:37:10.442Z,85.56
2022-10-05T03:39:54.735Z,85.54
2022-10-05T03:43:16.418Z,85.56
2022-10-05T03:45:55.818Z,85.79
2022-10-05T03:48:35.833Z,85.64
2022-10-05T03:51:24.758Z,85.59
2022-10-05T03:54:22.894Z,85.54
2022-10-05T03:57:24.640Z,85.38
2022-10-05T04:00:04.979Z,85.32
2022-10-05T04:03:20.415Z,85.75
2022-10-05T04:05:57.975Z,85.56
2022-10-05T04:08:52.100Z,85.47
2022-10-05T04:11:36.926Z,85.69
2022-10-05T04:14:38.759Z,85.72
2022-10-05T04:17:17.467Z,85.90
2022-10-05T04:20:02.121Z,86.21
2022-10-05T04:22:36.378Z,87.07
2022-10-05T04:25:23.784Z,88.14
2022-10-05T04:28:17.598Z,88.50
2022-10-05T04:30:49.799Z,88.60
2022-10-05T04:33:17.727Z,89.05
2022-10-05T04:36:19.033Z,89.42
2022-10-05T04:39:11.184Z,89.24
2022-10-05T04:42:20.806Z,89.57
2022-10-05T04:45:05.845Z,89.51
2022-10-05T04:47:58.685Z,89.45
2022-10-05T04:51:08.542Z,89.46
2022-10-05T04:53:56.891Z,89.83
2022-10-05T04:56:41.919Z,90.29
2022-10-05T04:59:28.009Z,90.81
2022-10-05T05:02:22.396Z,90.62
2022-10-05T05:05:21.610Z,90.26
2022-10-05T05:08:27.550Z,90.43
2022-10-05T05:11:34.545Z,90.16
2022-10-05T05:14:23.782Z,89.18
2022-10-05T05:17:31.065Z,88.57
2022-10-05T05:20:19.907Z,88.64
2022-10-05T05:23:05.836Z,88.22
2022-10-05T05:25:43.019Z,87.53
2022-10-05T05:28:29.776Z,86.91
2022-10-05T05:31:19.461Z,86.96
2022-10-05T05:34:32.274Z,86.85
2022-10-05T05:37:22.265Z,86.87
2022-10-05T05:40:33.938Z,86.69
2022-10-05T05:43:14.981Z,87.08
2022-10-05T05:45:48.591Z,87.33
2022-10-05T05:48:31.046Z,86.45
2022-10-05T05:51:14.159Z,86.05
2022-10-05T05:53:50.187Z,85.74
2022-10-05T05:56:27.003Z,85.67
2022-10-05T05:59:11.320Z,85.05
2022-10-05T06:01:46.094Z,84.49
2022-10-05T06:04:22.557Z,83.89
2022-10-05T06:06:56.143Z,83.18
2022-10-05T06:09:36.369Z,82.98
2022-10-05T06:12:38.304Z,82.53
2022-10-05T06:15:32.423Z,82.16
2022-10-05T06:18:15.711Z,81.69
2022-10-05T06:20:57.347Z,81.37
2022-10-05T06:23:40.048Z,80.97
2022-10-05T06:26:36.360Z,80.53
2022-10-05T06:29:11.538Z,79.99
2022-10-05T06:32:05.528Z,79.71
2022-10-05T06:35:06.110Z,79.01
2022-10-05T06:38:11.086Z,78.44
2022-10-05T06:41:03.241Z,78.06
2022-10-05T06:43:58.788Z,77.62
2022-10-05T06:47:00.446Z,77.33
2022-10-05T06:50:16.286Z,77.30
2022-10-05T06:53:38.882Z,76.86
2022-10-05T06:56:29.462Z,76.85
2022-10-05T06:59:23.876Z,76.51
2022-10-05T07:02:10.492Z,75.48
2022-10-05T07:05:26.667Z,75.11
2022-10-05T07:08:11.981Z,74.43
2022-10-05T07:11:07.376Z,73.77
2022-10-05T07:14:12.898Z,73.16
2022-10-05T07:17:15.118Z,72.20
2022-10-05T07:20:33.753Z,71.64
2022-10-05T07:23:25.259Z,71.46
2022-10-05T07:26:20.360Z,71.40
2022-10-05T07:29:07.936Z,70.99
2022-10-05T07:31:58.229Z,70.69
2022-10-05T07:34:57.073Z,70.12
2022-10-05T07:37:57.248Z,70.41
2022-10-05T07:41:09.680Z,69.76
2022-10-05T07:44:02.475Z,69.13
2022-10-05T07:46:58.134Z,68.79
2022-10-05T07:49:53.049Z,68.64
2022-10-05T07:52:31.065Z,68.68
2022-10-05T07:55:35.592Z,68.76
2022-10-05T07:58:20.763Z,68.37
2022-10-05T08:01:13.899Z,68.47
2022-10-05T08:03:55.697Z,68.75
2022-10-05T08:06:52.290Z,68.41
2022-10-05T08:09:33.634Z,68.47
2022-10-05T08:12:50.962Z,68.29
2022-10-05T08:15:43.128Z,68.44
2022-10-05T08:19:16.450Z,67.78
2022-10-05T08:21:52.307Z,67.58
2022-10-05T08:24:22.737Z,67.30
2022-10-05T08:27:06.369Z,66.41
2022-10-05T08:29:46.222Z,66.04
2022-10-05T08:32:50.367Z,65.55
2022-10-05T08:35:55.759Z,65.58
2022-10-05T08:38:32.102Z,65.56
2022-10-05T08:41:42.792Z,65.74
2022-10-05T08:44:45.496Z,65.32
2022-10-05T08:48:18.340Z,65.01
2022-10-05T08:51:33.719Z,64.94
2022-10-05T08:54:58.588Z,64.71
2022-10-05T08:57:56.506Z,64.76
2022-10-05T09:00:32.727Z,63.96
2022-10-05T09:03:20.091Z,63.33
2022-10-05T09:06:27.014Z,63.26
2022-10-05T09:09:34.921Z,62.40
2022-10-05T09:12:38.346Z,62.05
2022-10-05T09:15:37.306Z,61.75
2022-10-05T09:18:57.784Z,61.48
2022-10-05T09:21:42.666Z,62.24
2022-10-05T09:24:27.667Z,61.87
2022-10-05T09:27:17.417Z,62.32
2022-10-05T09:30:20.387Z,61.83
2022-10-05T09:33:26.007Z,63.08
2022-10-05T09:36:27.468Z,63.11
2022-10-05T09:40:01.102Z,62.50
2022-10-05T09:42:47.241Z,62.52
2022-10-05T09:46:02.341Z,62.39
2022-10-05T09:48:56.821Z,61.82
2022-10-05T09:52:07.184Z,61.66
2022-10-05T09:55:08.968Z,61.12
2022-10-05T09:58:11.739Z,62.24
2022-10-05T10:01:29.095Z,62.34
2022-10-05T10:04:22.067Z,61.88
2022-10-05T10:07:06.846Z,60.95
2022-10-05T10:09:52.902Z,60.83
2022-10-05T10:12:51.887Z,60.84
2022-10-05T10:15:57.828Z,59.87
2022-10-05T10:18:51.833Z,59.79
2022-10-05T10:21:43.332Z,60.51
2022-10-05T10:24:35.455Z,60.55
2022-10-05T10:27:32.116Z,61.25
2022-10-05T10:30:31.055Z,60.09
2022-10-05T10:33:35.043Z,60.43
2022-10-05T10:36:18.964Z,59.10
2022-10-05T10:39:08.009Z,59.24
2022-10-05T10:42:14.792Z,59.13
2022-10-05T10:45:05.394Z,58.43
2022-10-05T10:48:01.232Z,58.42
2022-10-05T10:51:03.199Z,57.67
2022-10-05T10:53:43.910Z,57.26
2022-10-05T10:56:37.030Z,57.14
2022-10-05T10:59:55.925Z,56.70
2022-10-05T11:02:57.696Z,56.62
2022-10-05T11:06:04.712Z,55.79
2022-10-05T11:09:13.397Z,57.11
2022-10-05T11:12:10.630Z,58.28
2022-10-05T11:15:17.274Z,57.79
2022-10-05T11:18:45.814Z,56.81
2022-10-05T11:21:54.169Z,57.28
2022-10-05T11:24:48.493Z,56.19
2022-10-05T11:27:40.723Z,55.20
2022-10-05T11:30:47.458Z,55.42
2022-10-05T11:33:57.982Z,55.84
2022-10-05T11:36:59.898Z,55.97
2022-10-05T11:39:33.505Z,56.03
2022-10-05T11:42:33.448Z,55.50
2022-10-05T11:45:37.627Z,55.76
2022-10-05T11:48:37.069Z,55.87
2022-10-05T11:51:28.453Z,55.74
2022-10-05T11:54:08.937Z,56.78
2022-10-05T11:56:44.502Z,57.73
2022-10-05T11:59:30.294Z,55.94
2022-10-05T12:02:43.635Z,56.19
2022-10-05T12:05:41.655Z,55.12
2022-10-05T12:08:52.711Z,55.45
2022-10-05T12:12:15.575Z,55.29
2022-10-05T12:15:01.654Z,55.09
2022-10-05T12:17:48.478Z,54.53
2022-10-05T12:20:33.441Z,54.82
2022-10-05T12:23:19.815Z,54.53
2022-10-05T12:26:06.559Z,54.32
2022-10-05T12:28:46.896Z,54.51
2022-10-05T12:31:29.658Z,53.84
2022-10-05T12:34:20.208Z,53.92
2022-10-05T12:37:43.519Z,55.07
2022-10-05T12:40:35.997Z,54.22
2022-10-05T12:43:20.481Z,54.53
2022-10-05T12:46:20.999Z,54.54
2022-10-05T12:49:43.964Z,55.29
2022-10-05T12:52:56.015Z,55.07
2022-10-05T12:55:53.299Z,56.03
2022-10-05T12:58:52.880Z,55.61
2022-10-05T13:01:50.746Z,57.51
2022-10-05T13:04:40.359Z,57.26
2022-10-05T13:07:29.324Z,57.51
2022-10-05T13:10:19.973Z,58.20
2022-10-05T13:13:37.619Z,59.16
2022-10-05T13:16:17.882Z,58.09
2022-10-05T13:18:59.003Z,58.55
2022-10-05T13:22:00.174Z,58.12
2022-10-05T13:25:17.270Z,60.94
2022-10-05T13:28:00.780Z,60.70
2022-10-05T13:30:29.712Z,60.57
2022-10-05T13:33:18.671Z,60.33
2022-10-05T13:35:58.902Z,59.60
2022-10-05T13:39:15.271Z,60.69
2022-10-05T13:41:59.983Z,61.05
2022-10-05T13:44:50.326Z,60.18
2022-10-05T13:47:34.183Z,60.58
2022-10-05T13:50:28.564Z,59.80
2022-10-05T13:53:27.004Z,60.38
2022-10-05T13:56:17.158Z,60.14
2022-10-05T13:59:14.558Z,60.67
2022-10-05T14:02:24.523Z,60.99
2022-10-05T14:05:01.062Z,61.98
2022-10-05T14:07:47.559Z,62.39
2022-10-05T14:10:38.235Z,62.29
2022-10-05T14:13:44.222Z,61.99
2022-10-05T14:16:11.979Z,61.63
2022-10-05T14:18:57.473Z,62.78
2022-10-05T14:21:30.654Z,62.56
2022-10-05T14:24:43.150Z,62.71
2022-10-05T14:27:28.101Z,63.17
2022-10-05T14:30:07.947Z,63.14
2022-10-05T14:33:07.230Z,62.42
2022-10-05T14:35:56.041Z,62.29
2022-10-05T14:38:51.244Z,61.97
2022-10-05T14:41:24.842Z,61.47
2022-10-05T14:44:11.064Z,61.47
2022-10-05T14:46:52.072Z,61.55
2022-10-05T14:49:49.997Z,61.79
2022-10-05T14:52:32.490Z,61.63
2022-10-05T14:55:39.541Z,62.44
2022-10-05T14:58:58.739Z,61.76
2022-10-05T15:01:35.015Z,62.18
2022-10-05T15:04:42.990Z,62.88
2022-10-05T15:07:26.365Z,61.62
2022-10-05T15:10:40.421Z,62.34
2022-10-05T15:13:22.295Z,63.04
2022-10-05T15:16:05.786Z,62.23
2022-10-05T15:18:52.026Z,62.00
2022-10-05T15:21:42.348Z,62.17
2022-10-05T15:24:27.023Z,62.11
2022-10-05T15:27:05.950Z,62.41
2022-10-05T15:30:04.508Z,62.45
2022-10-05T15:32:55.457Z,62.63
2022-10-05T15:35:45.089Z,62.53
2022-10-05T15:38:25.856Z,61.85
2022-10-05T15:41:10.458Z,62.37
2022-10-05T15:44:18.119Z,62.40
2022-10-05T15:46:48.027Z,62.44
2022-10-05T15:49:42.223Z,63.72
2022-10-05T15:52:36.141Z,64.28
2022-10-05T15:55:35.163Z,64.91
2022-10-05T15:58:43.751Z,64.44
2022-10-05T16:01:40.261Z,64.54
2022-10-05T16:04:46.843Z,64.86
2022-10-05T16:07:46.856Z,65.87
2022-10-05T16:10:24.136Z,66.24
2022-10-05T16:13:27.903Z,66.01
2022-10-05T16:16:16.230Z,65.35
2022-10-05T16:19:20.978Z,65.38
2022-10-05T16:22:43.454Z,65.82
2022-10-05T16:25:25.609Z,66.47
2022-10-05T16:28:45.070Z,66.23
2022-10-05T16:31:47.023Z,66.54
2022-10-05T16:34:58.517Z,66.75
2022-10-05T16:38:14.266Z,67.16
2022-10-05T16:41:29.489Z,67.64
2022-10-05T16:44:14.178Z,68.06
2022-10-05T16:47:08.689Z,68.40
2022-10-05T16:50:04.783Z,68.73
2022-10-05T16:52:33.954Z,69.07
2022-10-05T16:55:12.155Z,69.44
2022-10-05T16:57:52.565Z,69.72
2022-10-05T17:01:04.494Z,70.04
2022-10-05T17:03:57.231Z,70.53
2022-10-05T17:07:12.758Z,70.79
2022-10-05T17:10:13.476Z,70.75
2022-10-05T17:13:00.581Z,71.08
2022-10-05T17:16:05.705Z,71.57
2022-10-05T17:19:15.183Z,71.83
2022-10-05T17:22:22.691Z,72.29
2022-10-05T17:25:18.331Z,72.50
2022-10-05T17:28:16.365Z,72.76
2022-10-05T17:30:53.963Z,72.70
2022-10-05T17:33:30.327Z,72.41
2022-10-05T17:36:12.245Z,72.50
2022-10-05T17:39:20.104Z,72.77
2022-10-05T17:41:48.579Z,72.51
2022-10-05T17:44:24.752Z,72.73
2022-10-05T17:47:00.193Z,72.76
2022-10-05T17:50:16.110Z,73.40
2022-10-05T17:53:03.553Z,73.10
2022-10-05T17:55:44.044Z,73.40
2022-10-05T17:58:24.579Z,73.33
2022-10-05T18:00:58.433Z,73.90
2022-10-05T18:03:50.094Z,73.74
2022-10-05T18:06:37.788Z,74.32
2022-10-05T18:09:20.373Z,74.18
2022-10-05T18:12:16.141Z,73.92
2022-10-05T18:15:06.218Z,73.82
2022-10-05T18:17:58.642Z,73.23
2022-10-05T18:20:32.533Z,73.13
2022-10-05T18:23:01.475Z,72.92
2022-10-05T18:25:43.600Z,72.82
2022-10-05T18:28:28.740Z,73.01
2022-10-05T18:31:22.067Z,72.82
2022-10-05T18:34:31.246Z,72.83
2022-10-05T18:37:18.256Z,73.06
2022-10-05T18:40:17.080Z,72.37
2022-10-05T18:43:18.355Z,73.07
2022-10-05T18:46:22.358Z,72.80
2022-10-05T18:49:16.428Z,72.87
2022-10-05T18:52:00.376Z,73.09
2022-10-05T18:54:57.241Z,73.39
2022-10-05T18:57:43.653Z,73.27
2022-10-05T19:00:20.085Z,73.21
2022-10-05T19:02:57.694Z,73.17
2022-10-05T19:05:48.490Z,73.39
2022-10-05T19:08:59.798Z,73.93
2022-10-05T19:12:04.025Z,73.81
2022-10-05T19:14:45.336Z,74.05
2022-10-05T19:18:11.163Z,73.67
2022-10-05T19:21:13.946Z,73.32
2022-10-05T19:24:33.678Z,72.88
2022-10-05T19:27:46.714Z,72.97
2022-10-05T19:30:29.988Z,72.77
2022-10-05T19:33:31.163Z,72.85
2022-10-05T19:36:40.062Z,73.23
2022-10-05T19:39:31.178Z,73.49
2022-10-05T19:42:46.020Z,73.24
2022-10-05T19:45:27.353Z,73.23
2022-10-05T19:48:26.957Z,72.49
2022-10-05T19:51:00.940Z,72.65
2022-10-05T19:53:37.022Z,72.70
2022-10-05T19:56:34.161Z,72.63
2022-10-05T19:59:17.543Z,72.18
2022-10-05T20:01:55.850Z,72.26
2022-10-05T20:04:46.134Z,72.21
2022-10-05T20:07:20.711Z,72.19
2022-10-05T20:10:17.555Z,72.09
2022-10-05T20:12:56.030Z,72.60
2022-10-05T20:15:48.473Z,72.27
2022-10-05T20:19:01.512Z,72.11
2022-10-05T20:21:46.302Z,72.31
2022-10-05T20:24:25.726Z,72.51
2022-10-05T20:27:06.287Z,72.76
2022-10-05T20:29:38.639Z,72.89
2022-10-05T20:32:13.017Z,72.81
2022-10-05T20:34:43.380Z,73.10
2022-10-05T20:37:17.460Z,72.98
2022-10-05T20:39:45.394Z,72.98
2022-10-05T20:42:14.142Z,73.17
2022-10-05T20:44:41.897Z,73.42
2022-10-05T20:47:10.690Z,73.77
2022-10-05T20:49:41.199Z,74.07
2022-10-05T20:52:11.268Z,74.85
2022-10-05T20:54:39.460Z,75.18
2022-10-05T20:57:09.138Z,75.36
2022-10-05T20:59:37.345Z,75.25
2022-10-05T21:02:05.814Z,75.39
2022-10-05T21:04:40.895Z,75.12
2022-10-05T21:07:09.638Z,75.04
2022-10-05T21:09:39.274Z,75.04
2022-10-05T21:12:06.946Z,74.89
2022-10-05T21:14:36.426Z,75.03
2022-10-05T21:17:07.868Z,76.00
2022-10-05T21:19:39.453Z,76.34
2022-10-05T21:22:09.952Z,75.71
2022-10-05T21:24:40.766Z,75.60
2022-10-05T21:27:10.137Z,75.83
2022-10-05T21:29:40.917Z,76.02
2022-10-05T21:32:11.710Z,76.07
2022-10-05T21:34:41.439Z,76.11
2022-10-05T21:37:09.210Z,76.37
2022-10-05T21:39:36.903Z,76.86
2022-10-05T21:42:04.841Z,77.05
2022-10-05T21:44:32.546Z,77.27
2022-10-05T21:47:00.399Z,77.05
2022-10-05T21:49:28.621Z,77.10
2022-10-05T21:51:56.709Z,77.45
2022-10-05T21:54:24.905Z,77.71
2022-10-05T21:56:55.510Z,77.88
2022-10-05T21:59:29.195Z,77.86
2022-10-05T22:01:57.319Z,77.79
2022-10-05T22:04:25.126Z,77.40
2022-10-05T22:06:55.406Z,78.04
2022-10-05T22:09:23.391Z,77.90
2022-10-05T22:11:51.368Z,78.06
2022-10-05T22:14:19.151Z,78.13
2022-10-05T22:16:47.219Z,78.09
2022-10-05T22:19:19.087Z,78.85
2022-10-05T22:21:46.963Z,78.88
2022-10-05T22:24:14.684Z,78.40
2022-10-05T22:26:46.503Z,78.53
2022-10-05T22:29:16.863Z,79.05
2022-10-05T22:31:48.690Z,79.18
2022-10-05T22:34:18.144Z,79.36
2022-10-05T22:36:47.364Z,79.62
2022-10-05T22:39:17.040Z,80.20
2022-10-05T22:41:44.824Z,80.16
2022-10-05T22:44:12.662Z,79.87
2022-10-05T22:46:40.426Z,79.99
2022-10-05T22:49:08.784Z,80.08
2022-10-05T22:51:36.592Z,80.48
2022-10-05T22:54:04.679Z,80.66
2022-10-05T22:56:32.372Z,80.92
2022-10-05T22:59:00.026Z,80.56
2022-10-05T23:01:27.747Z,80.79
2022-10-05T23:03:57.176Z,80.72
2022-10-05T23:06:27.824Z,80.70
2022-10-05T23:08:55.560Z,80.65
2022-10-05T23:11:28.782Z,80.66
2022-10-05T23:13:57.329Z,80.61
2022-10-05T23:16:28.111Z,80.21
2022-10-05T23:18:56.941Z,79.78
2022-10-05T23:21:28.843Z,79.84
2022-10-05T23:23:56.562Z,79.37
2022-10-05T23:26:25.803Z,79.48
2022-10-05T23:28:54.120Z,79.76
2022-10-05T23:31:25.666Z,79.95
2022-10-05T23:33:53.854Z,79.98
2022-10-05T23:36:25.333Z,80.10
2022-10-05T23:38:53.916Z,79.93
2022-10-05T23:41:22.026Z,79.86
2022-10-05T23:43:49.851Z,79.82
2022-10-05T23:46:17.992Z,79.85
2022-10-05T23:48:45.803Z,79.95
2022-10-05T23:51:14.442Z,79.91
2022-10-05T23:53:42.667Z,79.96
2022-10-05T23:56:10.543Z,80.21
2022-10-05T23:58:38.990Z,80.17
